createdAt,value
2018-06-08T00:01:48.615Z,19.17
2018-06-08T00:04:17.828Z,18.97
2018-06-08T00:06:46.924Z,19.20
2018-06-08T00:09:15.936Z,19.38
2018-06-08T00:11:44.960Z,19.50
2018-06-08T00:14:14.036Z,19.59
2018-06-08T00:16:43.192Z,19.52
2018-06-08T00:19:12.160Z,19.40
2018-06-08T00:21:41.283Z,19.48
2018-06-08T00:24:10.296Z,19.45
2018-06-08T00:26:39.332Z,19.11
2018-06-08T00:29:08.724Z,19.21
2018-06-08T00:31:38.026Z,19.17
2018-06-08T00:34:07.904Z,19.37
2018-06-08T00:36:36.944Z,19.18
2018-06-08T00:39:08.730Z,19.17
2018-06-08T00:41:37.912Z,19.01
2018-06-08T00:44:06.934Z,18.94
2018-06-08T00:46:36.384Z,19.06
2018-06-08T00:49:05.526Z,19.15
2018-06-08T00:51:35.046Z,19.10
2018-06-08T00:54:04.077Z,19.32
2018-06-08T00:56:45.478Z,19.28
2018-06-08T00:59:14.548Z,19.13
2018-06-08T01:01:43.588Z,19.20
2018-06-08T01:04:12.625Z,18.93
2018-06-08T01:06:41.704Z,18.95
2018-06-08T01:09:11.024Z,18.90
2018-06-08T01:11:40.072Z,19.01
2018-06-08T01:14:09.104Z,19.06
2018-06-08T01:16:39.178Z,18.90
2018-06-08T01:19:08.532Z,18.76
2018-06-08T01:21:37.572Z,18.88
2018-06-08T01:24:07.107Z,18.91
2018-06-08T01:26:36.448Z,18.97
2018-06-08T01:29:05.520Z,18.96
2018-06-08T01:31:34.512Z,18.73
2018-06-08T01:34:03.552Z,18.65
2018-06-08T01:36:32.604Z,18.85
2018-06-08T01:39:01.614Z,18.71
2018-06-08T01:41:31.130Z,18.65
2018-06-08T01:44:00.120Z,18.58
2018-06-08T01:46:29.132Z,18.67
2018-06-08T01:48:58.484Z,18.74
2018-06-08T01:51:27.551Z,18.98
2018-06-08T01:53:57.764Z,19.08
2018-06-08T02:09:27.053Z,18.95
2018-06-08T02:11:56.054Z,18.87
2018-06-08T02:14:25.340Z,18.62
2018-06-08T02:16:55.236Z,18.84
2018-06-08T02:19:24.260Z,18.96
2018-06-08T02:21:53.268Z,19.03
2018-06-08T02:24:23.005Z,18.68
2018-06-08T02:26:52.016Z,18.59
2018-06-08T02:29:21.150Z,18.49
2018-06-08T02:31:50.238Z,18.64
2018-06-08T02:34:20.169Z,18.74
2018-06-08T02:36:49.198Z,18.80
2018-06-08T02:39:23.149Z,18.64
2018-06-08T02:41:52.210Z,18.77
2018-06-08T02:44:21.553Z,18.64
2018-06-08T02:46:51.051Z,18.48
2018-06-08T02:49:20.089Z,18.40
2018-06-08T02:51:49.234Z,18.40
2018-06-08T02:54:18.226Z,18.67
2018-06-08T02:56:47.245Z,18.61
2018-06-08T02:59:16.247Z,18.87
2018-06-08T03:01:45.287Z,18.71
2018-06-08T03:04:14.349Z,18.64
2018-06-08T03:06:44.310Z,18.60
2018-06-08T03:09:13.316Z,18.64
2018-06-08T03:11:42.616Z,18.52
2018-06-08T03:14:11.634Z,18.46
2018-06-08T03:16:42.010Z,18.60
2018-06-08T03:19:11.335Z,18.71
2018-06-08T03:21:47.121Z,18.93
2018-06-08T03:24:16.172Z,18.81
2018-06-08T03:26:45.219Z,18.78
2018-06-08T03:29:14.804Z,18.58
2018-06-08T03:31:43.950Z,18.41
2018-06-08T03:34:12.963Z,18.44
2018-06-08T03:36:43.002Z,18.44
2018-06-08T03:39:12.122Z,18.52
2018-06-08T03:41:41.139Z,18.46
2018-06-08T03:44:10.153Z,18.53
2018-06-08T03:46:39.207Z,18.40
2018-06-08T03:49:08.204Z,18.48
2018-06-08T03:51:37.227Z,18.57
2018-06-08T03:54:06.280Z,18.63
2018-06-08T03:56:35.766Z,18.39
2018-06-08T03:59:04.882Z,18.42
2018-06-08T04:01:33.942Z,18.51
2018-06-08T04:04:03.077Z,18.63
2018-06-08T04:06:37.713Z,18.47
2018-06-08T04:09:12.277Z,18.29
2018-06-08T04:11:41.967Z,18.27
2018-06-08T04:14:11.090Z,18.19
2018-06-08T04:16:40.077Z,18.24
2018-06-08T04:19:09.543Z,18.40
2018-06-08T04:21:38.555Z,18.28
2018-06-08T04:24:07.615Z,18.33
2018-06-08T04:26:36.663Z,18.29
2018-06-08T04:29:05.852Z,18.31
2018-06-08T04:31:34.879Z,18.33
2018-06-08T04:34:03.957Z,18.41
2018-06-08T04:36:33.631Z,18.23
2018-06-08T04:52:02.684Z,18.42
2018-06-08T04:54:31.706Z,18.52
2018-06-08T05:10:05.756Z,18.39
2018-06-08T05:12:34.770Z,18.15
2018-06-08T05:15:03.836Z,18.04
2018-06-08T05:17:33.757Z,18.19
2018-06-08T05:20:03.711Z,18.18
2018-06-08T05:22:33.183Z,18.11
2018-06-08T05:25:02.219Z,18.07
2018-06-08T05:27:31.301Z,18.03
2018-06-08T05:30:00.429Z,18.07
2018-06-08T05:32:29.812Z,17.98
2018-06-08T05:34:58.940Z,18.19
2018-06-08T05:37:28.010Z,18.07
2018-06-08T05:39:57.014Z,18.15
2018-06-08T05:42:26.038Z,18.26
2018-06-08T05:44:55.072Z,18.30
2018-06-08T05:47:24.120Z,18.38
2018-06-08T05:49:53.529Z,18.51
2018-06-08T05:52:22.534Z,18.38
2018-06-08T05:54:51.587Z,18.60
2018-06-08T05:57:20.635Z,18.56
2018-06-08T05:59:49.667Z,18.73
2018-06-08T06:02:19.276Z,18.72
2018-06-08T06:04:48.304Z,18.85
2018-06-08T06:07:22.902Z,18.67
2018-06-08T06:09:51.944Z,18.68
2018-06-08T06:12:21.028Z,18.68
2018-06-08T06:14:50.096Z,18.66
2018-06-08T06:17:19.153Z,18.47
2018-06-08T06:19:48.170Z,18.68
2018-06-08T06:22:17.186Z,18.53
2018-06-08T06:24:46.904Z,18.29
2018-06-08T06:27:15.985Z,18.29
2018-06-08T06:29:45.079Z,18.20
2018-06-08T06:32:14.132Z,18.20
2018-06-08T06:34:43.144Z,18.24
2018-06-08T06:37:12.281Z,18.43
2018-06-08T06:39:46.347Z,18.48
2018-06-08T06:42:15.415Z,18.54
2018-06-08T06:44:44.824Z,18.61
2018-06-08T06:47:13.997Z,18.64
2018-06-08T06:49:43.157Z,18.79
2018-06-08T06:52:12.211Z,18.66
2018-06-08T06:54:41.436Z,18.78
2018-06-08T06:57:10.597Z,18.45
2018-06-08T06:59:39.896Z,18.40
2018-06-08T07:02:09.088Z,18.36
2018-06-08T07:04:38.114Z,18.52
2018-06-08T07:07:07.234Z,18.57
2018-06-08T07:09:36.252Z,18.56
2018-06-08T07:12:05.272Z,18.57
2018-06-08T07:14:34.300Z,18.45
2018-06-08T07:17:03.321Z,18.30
2018-06-08T07:19:32.398Z,18.31
2018-06-08T07:22:01.508Z,18.22
2018-06-08T07:24:30.826Z,18.21
2018-06-08T07:26:59.906Z,18.43
2018-06-08T07:29:29.821Z,18.55
2018-06-08T07:31:58.999Z,18.34
2018-06-08T07:34:28.075Z,18.34
2018-06-08T07:36:58.213Z,18.34
2018-06-08T07:39:27.353Z,18.53
2018-06-08T07:41:56.380Z,18.71
2018-06-08T07:44:25.409Z,18.59
2018-06-08T07:46:54.476Z,18.63
2018-06-08T07:49:23.550Z,18.65
2018-06-08T07:51:52.589Z,18.66
2018-06-08T07:54:21.655Z,18.77
2018-06-08T07:56:51.232Z,18.95
2018-06-08T07:59:20.956Z,18.88
2018-06-08T08:01:50.043Z,19.03
2018-06-08T08:04:19.033Z,19.10
2018-06-08T08:06:48.321Z,19.03
2018-06-08T08:09:17.521Z,19.04
2018-06-08T08:11:46.532Z,19.26
2018-06-08T08:14:15.605Z,19.45
2018-06-08T08:16:45.668Z,19.58
2018-06-08T08:19:14.711Z,19.62
2018-06-08T08:21:43.739Z,19.70
2018-06-08T08:24:13.055Z,19.69
2018-06-08T08:26:42.065Z,19.84
2018-06-08T08:29:11.174Z,19.96
2018-06-08T08:31:45.891Z,19.98
2018-06-08T08:34:20.673Z,20.09
2018-06-08T08:36:49.710Z,20.22
2018-06-08T08:39:18.735Z,20.36
2018-06-08T08:41:47.832Z,20.39
2018-06-08T08:44:21.812Z,20.26
2018-06-08T08:46:50.867Z,19.94
2018-06-08T08:49:19.888Z,19.98
2018-06-08T08:51:48.981Z,20.10
2018-06-08T08:54:18.015Z,20.18
2018-06-08T08:56:47.092Z,20.22
2018-06-08T08:59:16.102Z,20.15
2018-06-08T09:01:45.134Z,20.02
2018-06-08T09:04:14.222Z,20.02
2018-06-08T09:06:43.216Z,19.96
2018-06-08T09:09:12.549Z,20.08
2018-06-08T09:11:41.593Z,20.10
2018-06-08T09:14:10.604Z,20.12
2018-06-08T09:16:39.677Z,20.14
2018-06-08T09:19:09.596Z,20.12
2018-06-08T09:21:38.668Z,20.00
2018-06-08T09:24:07.792Z,19.94
2018-06-08T09:26:36.792Z,19.74
2018-06-08T09:29:05.837Z,19.77
2018-06-08T09:31:35.408Z,19.92
2018-06-08T09:34:04.772Z,20.06
2018-06-08T09:36:33.796Z,19.93
2018-06-08T09:39:04.516Z,19.99
2018-06-08T09:41:33.528Z,20.05
2018-06-08T09:44:02.702Z,20.06
2018-06-08T09:46:31.739Z,19.96
2018-06-08T09:49:01.174Z,19.93
2018-06-08T09:51:30.161Z,20.00
2018-06-08T09:53:59.788Z,20.05
2018-06-08T09:56:28.889Z,20.14
2018-06-08T09:58:58.070Z,20.16
2018-06-08T10:01:27.184Z,20.16
2018-06-08T10:03:56.196Z,20.21
2018-06-08T10:06:25.228Z,20.29
2018-06-08T10:08:54.240Z,20.33
2018-06-08T10:11:23.260Z,20.26
2018-06-08T10:13:52.258Z,20.27
2018-06-08T10:16:21.308Z,20.22
2018-06-08T10:18:50.355Z,20.07
2018-06-08T10:21:19.428Z,20.03
2018-06-08T10:23:48.493Z,20.14
2018-06-08T10:26:17.800Z,20.13
2018-06-08T10:28:46.780Z,20.10
2018-06-08T10:31:15.956Z,20.07
2018-06-08T10:33:44.932Z,19.98
2018-06-08T10:36:14.358Z,19.89
2018-06-08T10:38:43.368Z,19.76
2018-06-08T10:41:12.700Z,19.77
2018-06-08T10:43:41.739Z,19.79
2018-06-08T10:46:10.736Z,19.75
2018-06-08T11:01:39.756Z,19.90
2018-06-08T11:04:08.742Z,19.91
2018-06-08T11:06:38.027Z,19.96
2018-06-08T11:09:08.817Z,20.08
2018-06-08T11:11:37.858Z,20.15
2018-06-08T11:14:06.912Z,20.24
2018-06-08T11:16:36.312Z,20.27
2018-06-08T11:19:05.366Z,20.30
2018-06-08T11:21:34.425Z,20.31
2018-06-08T11:24:03.410Z,20.30
2018-06-08T11:26:33.056Z,20.39
2018-06-08T11:29:02.072Z,20.29
2018-06-08T11:31:31.087Z,20.37
2018-06-08T11:34:00.150Z,20.37
2018-06-08T11:36:29.188Z,20.14
2018-06-08T11:38:58.246Z,20.28
2018-06-08T11:41:27.376Z,20.26
2018-06-08T11:43:56.429Z,20.28
2018-06-08T11:46:25.694Z,20.33
2018-06-08T11:48:54.782Z,20.22
2018-06-08T11:51:23.882Z,20.31
2018-06-08T11:53:52.894Z,20.39
2018-06-08T11:56:21.980Z,20.33
2018-06-08T11:58:51.690Z,20.41
2018-06-08T12:01:21.691Z,20.34
2018-06-08T12:03:50.712Z,20.26
2018-06-08T12:06:19.900Z,20.25
2018-06-08T12:08:48.816Z,20.50
2018-06-08T12:11:17.865Z,20.50
2018-06-08T12:13:47.540Z,20.47
2018-06-08T12:16:16.712Z,20.47
2018-06-08T12:18:46.485Z,20.53
2018-06-08T12:21:15.628Z,20.42
2018-06-08T12:23:44.714Z,20.41
2018-06-08T12:26:13.750Z,20.53
2018-06-08T12:28:42.769Z,20.54
2018-06-08T12:31:11.981Z,20.56
2018-06-08T12:33:41.060Z,20.70
2018-06-08T12:36:10.173Z,20.79
2018-06-08T12:38:40.380Z,20.69
2018-06-08T12:41:09.396Z,20.80
2018-06-08T12:43:38.440Z,20.98
2018-06-08T12:46:07.541Z,21.15
2018-06-08T12:48:36.588Z,21.33
2018-06-08T12:51:05.738Z,21.45
2018-06-08T12:53:34.767Z,21.34
2018-06-08T12:56:03.808Z,21.37
2018-06-08T12:58:32.835Z,21.52
2018-06-08T13:01:02.836Z,21.60
2018-06-08T13:03:31.857Z,21.69
2018-06-08T13:06:01.180Z,21.81
2018-06-08T13:08:30.311Z,21.85
2018-06-08T13:10:59.506Z,21.79
2018-06-08T13:13:28.493Z,21.84
2018-06-08T13:15:57.518Z,21.79
2018-06-08T13:18:27.126Z,21.74
2018-06-08T13:20:56.239Z,21.76
2018-06-08T13:23:25.395Z,21.78
2018-06-08T13:25:54.407Z,21.75
2018-06-08T13:28:23.405Z,21.80
2018-06-08T13:30:52.668Z,21.90
2018-06-08T13:33:21.705Z,22.01
2018-06-08T13:35:50.715Z,22.06
2018-06-08T13:38:19.761Z,21.90
2018-06-08T13:40:48.801Z,21.71
2018-06-08T13:43:18.389Z,21.82
2018-06-08T13:45:47.427Z,22.03
2018-06-08T13:48:16.496Z,22.12
2018-06-08T13:50:45.573Z,22.07
2018-06-08T13:53:14.605Z,22.08
2018-06-08T13:55:43.706Z,22.21
2018-06-08T13:58:12.676Z,22.23
2018-06-08T14:00:41.712Z,22.12
2018-06-08T14:03:10.737Z,22.33
2018-06-08T14:05:39.785Z,22.43
2018-06-08T14:08:08.804Z,22.49
2018-06-08T14:23:37.848Z,22.54
2018-06-08T14:26:06.874Z,22.56
2018-06-08T14:28:35.872Z,22.62
2018-06-08T14:31:04.938Z,22.65
2018-06-08T14:33:33.972Z,22.62
2018-06-08T14:36:02.968Z,22.66
2018-06-08T14:38:32.020Z,22.68
2018-06-08T14:41:02.001Z,22.71
2018-06-08T14:43:31.052Z,22.71
2018-06-08T14:46:00.160Z,22.72
2018-06-08T14:48:29.276Z,22.69
2018-06-08T15:03:58.334Z,22.41
2018-06-08T15:06:27.340Z,22.43
2018-06-08T15:08:56.351Z,22.40
2018-06-08T15:11:25.490Z,22.42
2018-06-08T15:13:55.519Z,22.45
2018-06-08T15:16:24.568Z,22.51
2018-06-08T15:18:53.612Z,22.55
2018-06-08T15:21:22.816Z,22.55
2018-06-08T15:23:51.828Z,22.60
2018-06-08T15:26:20.899Z,22.60
2018-06-08T15:28:49.925Z,22.61
2018-06-08T15:31:19.292Z,22.57
2018-06-08T15:33:49.156Z,22.57
2018-06-08T15:36:18.257Z,22.52
2018-06-08T15:38:47.316Z,22.47
2018-06-08T15:41:16.367Z,22.44
2018-06-08T15:43:45.773Z,22.46
2018-06-08T15:46:15.161Z,22.45
2018-06-08T15:48:44.504Z,22.48
2018-06-08T15:51:13.590Z,22.52
2018-06-08T15:53:42.708Z,22.56
2018-06-08T15:56:11.691Z,22.56
2018-06-08T15:58:40.715Z,22.61
2018-06-08T16:01:09.687Z,22.56
2018-06-08T16:03:38.735Z,22.56
2018-06-08T16:06:07.761Z,22.60
2018-06-08T16:08:36.813Z,22.51
2018-06-08T16:11:05.967Z,22.51
2018-06-08T16:13:35.039Z,22.47
2018-06-08T16:16:04.075Z,22.56
2018-06-08T16:18:33.127Z,22.53
2018-06-08T16:21:02.151Z,22.57
2018-06-08T16:23:31.181Z,22.68
2018-06-08T16:26:00.181Z,22.63
2018-06-08T16:28:29.554Z,22.61
2018-06-08T16:30:58.974Z,22.62
2018-06-08T16:33:28.013Z,22.61
2018-06-08T16:35:57.296Z,22.38
2018-06-08T16:38:26.316Z,22.46
2018-06-08T16:40:55.328Z,22.43
2018-06-08T16:43:24.590Z,22.33
2018-06-08T16:45:53.616Z,22.07
2018-06-08T16:48:22.670Z,21.98
2018-06-08T16:50:51.683Z,21.96
2018-06-08T16:53:21.759Z,21.95
2018-06-08T16:55:51.571Z,21.88
2018-06-08T16:58:20.766Z,21.92
2018-06-08T17:00:49.946Z,21.95
2018-06-08T17:03:19.010Z,21.72
2018-06-08T17:05:47.989Z,21.68
2018-06-08T17:08:17.030Z,21.54
2018-06-08T17:10:46.082Z,21.57
2018-06-08T17:13:15.121Z,21.54
2018-06-08T17:15:44.792Z,21.26
2018-06-08T17:18:13.803Z,21.16
2018-06-08T17:20:42.836Z,21.15
2018-06-08T17:23:11.851Z,21.03
2018-06-08T17:25:40.838Z,20.62
2018-06-08T17:28:10.044Z,20.45
2018-06-08T17:30:39.136Z,20.50
2018-06-08T17:33:08.416Z,20.43
2018-06-08T17:35:37.429Z,20.49
2018-06-08T17:38:06.470Z,20.25
2018-06-08T17:40:36.276Z,20.15
2018-06-08T17:43:05.364Z,20.20
2018-06-08T17:45:34.885Z,20.23
2018-06-08T17:48:04.650Z,20.20
2018-06-08T17:50:33.838Z,20.14
2018-06-08T17:53:02.858Z,20.03
2018-06-08T18:08:31.964Z,19.67
2018-06-08T18:11:01.560Z,19.72
2018-06-08T18:13:30.914Z,19.63
2018-06-08T18:16:00.014Z,19.60
2018-06-08T18:18:29.128Z,19.61
2018-06-08T18:20:59.217Z,19.79
2018-06-08T18:23:28.277Z,19.80
2018-06-08T18:25:57.308Z,19.76
2018-06-08T18:28:27.249Z,19.82
2018-06-08T18:30:56.313Z,19.86
2018-06-08T18:33:25.411Z,19.76
2018-06-08T18:35:54.504Z,19.87
2018-06-08T18:38:23.572Z,19.91
2018-06-08T18:40:52.718Z,19.80
2018-06-08T18:43:21.759Z,19.86
2018-06-08T18:45:51.390Z,19.86
2018-06-08T18:48:20.517Z,19.77
2018-06-08T18:50:49.578Z,19.57
2018-06-08T18:53:18.653Z,19.58
2018-06-08T18:55:47.832Z,19.65
2018-06-08T18:58:16.886Z,19.51
2018-06-08T19:00:45.957Z,19.32
2018-06-08T19:03:15.039Z,19.47
2018-06-08T19:05:44.057Z,19.47
2018-06-08T19:08:13.091Z,19.34
2018-06-08T19:10:42.241Z,19.44
2018-06-08T19:13:11.279Z,19.49
2018-06-08T19:15:40.301Z,19.54
2018-06-08T19:18:09.448Z,19.42
2018-06-08T19:20:38.833Z,19.49
2018-06-08T19:23:07.846Z,19.49
2018-06-08T19:25:37.129Z,19.54
2018-06-08T19:28:06.171Z,19.52
2018-06-08T19:30:35.216Z,19.36
2018-06-08T19:33:04.358Z,19.53
2018-06-08T19:35:33.416Z,19.55
2018-06-08T19:38:02.516Z,19.60
2018-06-08T19:40:31.540Z,19.57
2018-06-08T19:43:00.607Z,19.60
2018-06-08T19:45:29.645Z,19.57
2018-06-08T19:47:58.781Z,19.57
2018-06-08T19:50:27.789Z,19.43
2018-06-08T19:52:56.786Z,19.53
2018-06-08T19:55:25.914Z,19.55
2018-06-08T19:57:54.972Z,19.42
2018-06-08T20:00:24.069Z,19.50
2018-06-08T20:02:53.359Z,19.49
2018-06-08T20:05:22.400Z,19.58
2018-06-08T20:07:51.416Z,19.52
2018-06-08T20:10:20.432Z,19.48
2018-06-08T20:12:50.369Z,19.49
2018-06-08T20:15:19.411Z,19.40
2018-06-08T20:17:48.491Z,19.41
2018-06-08T20:20:17.517Z,19.45
2018-06-08T20:22:46.532Z,19.50
2018-06-08T20:25:15.696Z,19.61
2018-06-08T20:27:44.764Z,19.49
2018-06-08T20:30:13.785Z,19.42
2018-06-08T20:32:42.796Z,19.30
2018-06-08T20:35:11.841Z,19.49
2018-06-08T20:37:40.976Z,19.40
2018-06-08T20:40:10.026Z,19.34
2018-06-08T20:42:39.353Z,19.45
2018-06-08T20:45:08.366Z,19.43
2018-06-08T20:47:37.431Z,19.52
2018-06-08T20:50:06.502Z,19.46
2018-06-08T20:52:35.529Z,19.50
2018-06-08T20:55:04.588Z,19.47
2018-06-08T20:57:33.636Z,19.55
2018-06-08T21:00:02.951Z,19.41
2018-06-08T21:02:32.284Z,19.42
2018-06-08T21:05:01.330Z,19.52
2018-06-08T21:07:30.404Z,19.38
2018-06-08T21:09:59.463Z,19.43
2018-06-08T21:12:28.475Z,19.45
2018-06-08T21:14:57.610Z,19.49
2018-06-08T21:17:26.598Z,19.51
2018-06-08T21:19:55.652Z,19.53
2018-06-08T21:22:25.312Z,19.45
2018-06-08T21:24:54.334Z,19.47
2018-06-08T21:27:23.352Z,19.37
2018-06-08T21:29:52.373Z,19.33
2018-06-08T21:32:27.088Z,19.35
2018-06-08T21:34:56.126Z,19.33
2018-06-08T21:37:25.152Z,19.36
2018-06-08T21:39:54.128Z,19.39
2018-06-08T21:42:23.227Z,19.42
2018-06-08T21:44:52.376Z,19.34
2018-06-08T21:47:21.488Z,19.40
2018-06-08T21:49:50.525Z,19.34
2018-06-08T21:52:19.712Z,19.20
2018-06-08T21:54:48.989Z,19.26
2018-06-08T21:57:18.332Z,19.32
2018-06-08T21:59:47.352Z,19.42
2018-06-08T22:02:16.422Z,19.41
2018-06-08T22:04:45.804Z,19.50
2018-06-08T22:07:15.083Z,19.45
2018-06-08T22:09:44.241Z,19.21
2018-06-08T22:12:13.657Z,19.24
2018-06-08T22:14:42.663Z,19.21
2018-06-08T22:17:12.519Z,19.33
2018-06-08T22:19:41.591Z,19.16
2018-06-08T22:22:10.592Z,19.18
2018-06-08T22:24:39.625Z,19.23
2018-06-08T22:27:08.962Z,19.21
2018-06-08T22:29:37.992Z,19.19
2018-06-08T22:32:07.024Z,19.15
2018-06-08T22:34:36.380Z,19.15
2018-06-08T22:37:05.456Z,19.11
2018-06-08T22:39:34.904Z,19.05
2018-06-08T22:42:04.043Z,19.09
2018-06-08T22:44:33.364Z,19.17
2018-06-08T22:47:02.728Z,19.16
2018-06-08T22:49:31.730Z,19.16
2018-06-08T22:52:00.794Z,19.09
2018-06-08T22:54:29.828Z,19.14
2018-06-08T22:56:58.970Z,19.01
2018-06-08T22:59:28.090Z,18.94
2018-06-08T23:01:57.431Z,19.06
2018-06-08T23:04:26.446Z,18.97
2018-06-08T23:06:55.448Z,18.91
2018-06-08T23:09:24.512Z,18.85
2018-06-08T23:11:53.534Z,18.84
2018-06-08T23:14:22.609Z,18.82
2018-06-08T23:16:51.996Z,18.82
2018-06-08T23:19:21.100Z,18.85
2018-06-08T23:21:50.128Z,18.92
2018-06-08T23:24:19.168Z,18.90
2018-06-08T23:26:53.848Z,18.85
2018-06-08T23:29:29.044Z,18.67
2018-06-08T23:31:58.061Z,18.79
2018-06-08T23:34:27.120Z,18.82
2018-06-08T23:36:56.936Z,18.90
2018-06-08T23:39:26.356Z,18.90
2018-06-08T23:41:55.421Z,18.69
2018-06-08T23:44:24.450Z,18.73
2018-06-08T23:46:53.524Z,18.71
2018-06-08T23:49:23.020Z,18.72
2018-06-08T23:51:52.588Z,18.66
2018-06-08T23:54:21.756Z,18.71
2018-06-08T23:56:51.158Z,18.77
2018-06-08T23:59:21.204Z,18.75
